Terminal Aerodrome Forecast
Issued by NWS

Home | Current Version | Previous Version | Text Only | Print | Product List | Glossary On
Versions: 1 2 3 4 5 6 7 8 9 10 11 12 13 14 15 16
000
FTUS42 KGSP 261130
TAFGMU
TAF
KGMU 261130Z 2612/2712 18005KT P6SM SCT008 OVC014
      TEMPO 2612/2615 BKN008 OVC014
     FM261600 20005KT P6SM OVC021
     FM261800 22006KT P6SM OVC050
     FM262300 17004KT P6SM BKN060 PROB30 2623/2705 4SM TSRA BKN040CB
     FM270500 20006KT P6SM -SHRA VCTS OVC017CB
     FM270800 20005KT P6SM -SHRA OVC008 PROB30 2708/2712 4SM TSRA
      OVC008CB=

USA.gov is the U.S. government's official web portal to all federal, state and local government web resources and services.